createdAt,value
2022-12-19T00:04:15.753Z,81.15
2022-12-19T00:09:18.911Z,81.21
2022-12-19T00:14:38.573Z,80.82
2022-12-19T00:19:45.916Z,80.85
2022-12-19T00:24:58.309Z,80.29
2022-12-19T00:30:03.067Z,80.80
2022-12-19T00:35:13.990Z,80.47
2022-12-19T00:40:34.221Z,81.22
2022-12-19T00:45:38.924Z,81.04
2022-12-19T00:50:47.333Z,80.74
2022-12-19T00:55:52.938Z,80.96
2022-12-19T01:00:58.765Z,81.21
2022-12-19T01:11:55.269Z,81.28
2022-12-19T01:17:03.818Z,80.29
2022-12-19T01:22:13.535Z,80.27
2022-12-19T01:27:48.996Z,80.71
2022-12-19T01:38:23.740Z,80.71
2022-12-19T01:43:30.885Z,80.92
2022-12-19T01:48:44.734Z,81.05
2022-12-19T01:53:57.193Z,81.40
2022-12-19T01:59:11.786Z,81.12
2022-12-19T02:09:39.152Z,81.52
2022-12-19T02:14:48.107Z,81.18
2022-12-19T02:20:31.877Z,81.55
2022-12-19T02:26:11.098Z,82.01
2022-12-19T02:31:37.153Z,81.85
2022-12-19T02:41:14.584Z,81.71
2022-12-19T02:46:22.917Z,81.21
2022-12-19T02:51:34.227Z,81.18
2022-12-19T02:57:15.587Z,81.72
2022-12-19T03:03:12.851Z,81.35
2022-12-19T03:08:33.812Z,81.43
2022-12-19T03:19:24.127Z,81.60
2022-12-19T03:24:29.595Z,81.29
2022-12-19T03:29:50.110Z,81.56
2022-12-19T03:35:29.374Z,81.87
2022-12-19T03:40:36.136Z,81.59
2022-12-19T03:46:19.567Z,81.63
2022-12-19T03:51:59.607Z,81.90
2022-12-19T03:57:28.045Z,82.03
2022-12-19T04:02:38.131Z,81.70
2022-12-19T04:07:42.978Z,81.47
2022-12-19T04:13:30.715Z,81.47
2022-12-19T04:18:58.643Z,81.57
2022-12-19T04:24:18.815Z,81.68
2022-12-19T04:34:45.593Z,81.41
2022-12-19T04:39:50.498Z,81.55
2022-12-19T04:50:07.601Z,81.66
2022-12-19T04:55:12.592Z,82.42
2022-12-19T05:07:03.435Z,82.31
2022-12-19T05:16:44.838Z,82.49
2022-12-19T05:21:46.760Z,83.05
2022-12-19T05:26:49.729Z,82.55
2022-12-19T05:32:00.581Z,82.80
2022-12-19T05:37:07.798Z,82.95
2022-12-19T05:42:13.444Z,82.69
2022-12-19T05:47:15.324Z,82.78
2022-12-19T05:52:17.202Z,82.97
2022-12-19T05:57:40.916Z,83.35
2022-12-19T06:02:47.785Z,83.22
2022-12-19T06:07:53.292Z,83.11
2022-12-19T06:12:57.394Z,83.17
2022-12-19T06:18:00.938Z,83.23
2022-12-19T06:23:03.738Z,83.30
2022-12-19T06:28:12.654Z,83.49
2022-12-19T06:33:15.834Z,83.36
2022-12-19T06:38:24.285Z,83.53
2022-12-19T06:43:27.653Z,84.01
2022-12-19T06:48:30.446Z,83.98
2022-12-19T06:53:35.470Z,83.75
2022-12-19T06:58:39.887Z,83.57
2022-12-19T07:03:46.796Z,83.21
2022-12-19T07:09:16.228Z,83.29
2022-12-19T07:14:28.504Z,83.57
2022-12-19T07:19:37.492Z,84.07
2022-12-19T07:24:41.745Z,83.98
2022-12-19T07:29:44.150Z,83.80
2022-12-19T07:34:47.869Z,83.73
2022-12-19T07:39:52.865Z,84.33
2022-12-19T07:44:56.170Z,83.93
2022-12-19T07:50:04.289Z,83.26
2022-12-19T07:55:08.644Z,83.04
2022-12-19T08:00:16.423Z,82.55
2022-12-19T08:05:19.219Z,78.26
2022-12-19T08:10:28.436Z,70.94
2022-12-19T08:15:40.319Z,64.96
2022-12-19T08:20:47.259Z,59.65
2022-12-19T08:26:00.970Z,52.13
2022-12-19T08:31:12.251Z,48.22
2022-12-19T08:36:21.660Z,45.96
2022-12-19T08:41:27.334Z,45.23
2022-12-19T08:46:35.014Z,45.37
2022-12-19T08:51:45.532Z,45.93
2022-12-19T08:56:52.493Z,44.84
2022-12-19T09:01:56.420Z,46.63
2022-12-19T09:07:03.156Z,47.37
2022-12-19T09:12:07.133Z,49.13
2022-12-19T09:17:10.326Z,49.89
2022-12-19T09:22:13.792Z,51.03
2022-12-19T09:27:47.419Z,50.97
2022-12-19T09:32:58.118Z,52.06
2022-12-19T09:38:10.303Z,53.17
2022-12-19T09:43:33.986Z,52.02
2022-12-19T09:48:41.505Z,55.18
2022-12-19T09:54:00.826Z,55.17
2022-12-19T09:59:39.883Z,58.37
2022-12-19T10:05:05.981Z,60.12
2022-12-19T10:12:39.648Z,60.88
2022-12-19T10:16:32.279Z,60.10
2022-12-19T10:22:17.632Z,59.61
2022-12-19T10:27:57.390Z,57.98
2022-12-19T10:33:39.136Z,57.21
2022-12-19T10:39:03.288Z,56.78
2022-12-19T10:44:10.361Z,57.74
2022-12-19T10:49:23.925Z,57.25
2022-12-19T10:54:46.753Z,57.89
2022-12-19T11:00:16.529Z,58.34
2022-12-19T11:05:42.753Z,59.91
2022-12-19T11:12:43.373Z,60.20
2022-12-19T11:22:56.152Z,60.91
2022-12-19T11:29:26.221Z,61.54
2022-12-19T11:30:43.173Z,62.47
2022-12-19T11:33:16.923Z,62.94
2022-12-19T11:38:54.531Z,62.91
2022-12-19T11:44:07.668Z,62.44
2022-12-19T11:49:29.039Z,61.29
2022-12-19T11:54:44.153Z,61.49
2022-12-19T11:59:51.438Z,62.55
2022-12-19T12:05:27.822Z,61.13
2022-12-19T12:15:01.755Z,61.38
2022-12-19T12:27:10.908Z,61.52
2022-12-19T12:31:39.146Z,60.58
2022-12-19T12:31:46.929Z,59.07
2022-12-19T12:35:31.528Z,59.53
2022-12-19T12:40:37.994Z,61.88
2022-12-19T12:45:47.845Z,63.96
2022-12-19T12:50:55.318Z,65.17
2022-12-19T12:56:12.588Z,64.97
2022-12-19T13:01:30.540Z,66.14
2022-12-19T13:06:43.704Z,66.07
2022-12-19T13:12:37.537Z,66.98
2022-12-19T13:18:00.743Z,67.50
2022-12-19T13:23:06.159Z,68.12
2022-12-19T13:28:24.883Z,68.82
2022-12-19T13:33:46.437Z,68.47
2022-12-19T13:40:02.200Z,68.50
2022-12-19T13:44:24.362Z,67.03
2022-12-19T13:49:35.567Z,65.03
2022-12-19T13:54:52.803Z,64.13
2022-12-19T14:00:04.353Z,64.47
2022-12-19T14:06:18.481Z,63.29
2022-12-19T14:11:34.803Z,64.83
2022-12-19T14:16:39.886Z,66.51
2022-12-19T14:22:04.468Z,66.63
2022-12-19T14:28:17.444Z,66.68
2022-12-19T14:33:43.502Z,67.31
2022-12-19T14:39:19.846Z,68.65
2022-12-19T14:52:11.722Z,69.09
2022-12-19T14:54:12.860Z,69.32
2022-12-19T14:56:19.577Z,70.66
2022-12-19T15:01:12.259Z,70.72
2022-12-19T15:07:06.812Z,70.90
2022-12-19T15:14:46.690Z,71.43
2022-12-19T15:17:47.225Z,72.29
2022-12-19T15:22:54.185Z,71.68
2022-12-19T15:27:58.059Z,72.20
2022-12-19T15:33:04.787Z,73.27
2022-12-19T15:38:17.479Z,74.31
2022-12-19T15:44:01.807Z,75.64
2022-12-19T15:48:54.650Z,75.52
2022-12-19T15:54:38.332Z,76.20
2022-12-19T15:59:36.555Z,76.63
2022-12-19T16:04:40.595Z,77.41
2022-12-19T16:09:44.249Z,78.50
2022-12-19T16:14:56.270Z,79.34
2022-12-19T16:19:59.999Z,80.06
2022-12-19T16:25:03.675Z,80.43
2022-12-19T16:30:26.822Z,82.05
2022-12-19T16:40:57.312Z,82.14
2022-12-19T16:46:01.967Z,82.59
2022-12-19T16:51:06.836Z,83.30
2022-12-19T16:56:25.125Z,84.65
2022-12-19T17:01:33.104Z,84.16
2022-12-19T17:06:41.344Z,84.89
2022-12-19T17:11:49.840Z,84.80
2022-12-19T17:17:03.072Z,85.86
2022-12-19T17:22:13.501Z,86.65
2022-12-19T17:27:20.678Z,86.20
2022-12-19T17:32:33.153Z,86.39
2022-12-19T17:37:35.934Z,86.38
2022-12-19T17:42:41.111Z,86.60
2022-12-19T17:47:47.174Z,87.23
2022-12-19T17:52:56.235Z,87.16
2022-12-19T17:58:04.024Z,86.63
2022-12-19T18:03:21.162Z,87.65
2022-12-19T18:08:34.780Z,87.90
2022-12-19T18:13:40.172Z,87.28
2022-12-19T18:18:46.157Z,87.08
2022-12-19T18:23:53.823Z,87.26
2022-12-19T18:29:05.322Z,87.50
2022-12-19T18:34:24.109Z,88.33
2022-12-19T18:39:29.668Z,87.61
2022-12-19T18:44:32.455Z,87.55
2022-12-19T18:49:39.950Z,87.73
2022-12-19T19:00:01.207Z,88.13
2022-12-19T19:05:05.734Z,90.42
2022-12-19T19:10:42.673Z,90.02
2022-12-19T19:16:01.748Z,89.49
2022-12-19T19:21:09.333Z,89.05
2022-12-19T19:26:16.387Z,89.10
2022-12-19T19:31:24.029Z,89.25
2022-12-19T19:36:30.677Z,89.49
2022-12-19T19:41:42.873Z,89.08
2022-12-19T19:46:47.448Z,89.75
2022-12-19T19:51:50.634Z,89.60
2022-12-19T19:56:56.588Z,89.71
2022-12-19T20:02:04.660Z,89.72
2022-12-19T20:07:08.131Z,89.72
2022-12-19T20:12:18.007Z,89.15
2022-12-19T20:17:23.600Z,91.49
2022-12-19T20:22:30.724Z,93.01
2022-12-19T20:27:35.140Z,90.15
2022-12-19T20:32:42.412Z,90.45
2022-12-19T20:37:46.259Z,91.21
2022-12-19T20:42:52.798Z,90.53
2022-12-19T20:48:00.717Z,89.71
2022-12-19T20:53:06.560Z,89.80
2022-12-19T20:58:12.513Z,89.44
2022-12-19T21:03:31.580Z,89.15
2022-12-19T21:08:36.401Z,88.97
2022-12-19T21:13:41.827Z,88.64
2022-12-19T21:18:48.051Z,88.39
2022-12-19T21:23:52.962Z,88.10
2022-12-19T21:29:00.519Z,87.34
2022-12-19T21:34:05.034Z,87.75
2022-12-19T21:39:14.195Z,87.50
2022-12-19T21:44:20.397Z,87.10
2022-12-19T21:49:26.111Z,86.80
2022-12-19T21:54:31.739Z,86.16
2022-12-19T21:59:36.470Z,85.93
2022-12-19T22:04:44.407Z,85.71
2022-12-19T22:09:47.723Z,85.60
2022-12-19T22:14:55.692Z,86.07
2022-12-19T22:20:02.005Z,86.13
2022-12-19T22:25:07.851Z,86.28
2022-12-19T22:30:13.449Z,86.46
2022-12-19T22:35:19.071Z,86.32
2022-12-19T22:40:23.646Z,86.22
2022-12-19T22:45:26.162Z,86.42
2022-12-19T22:50:29.963Z,86.24
2022-12-19T22:55:34.429Z,85.79
2022-12-19T23:00:42.725Z,85.75
2022-12-19T23:05:58.719Z,85.78
2022-12-19T23:11:02.300Z,85.50
2022-12-19T23:16:11.050Z,85.70
2022-12-19T23:21:28.615Z,85.56
2022-12-19T23:26:43.699Z,85.38
2022-12-19T23:31:48.350Z,85.43
2022-12-19T23:42:21.064Z,85.49
2022-12-19T23:47:24.259Z,85.71
2022-12-19T23:52:31.772Z,85.96
2022-12-19T23:57:40.612Z,85.99
